Amir Torabi

Chefscout - Sepahan
3 Dez 2028
Sonntag
Verarbeitung

Persönlichkeit

Anpassungsfähigkeit (12) Ehrgeiz (11) Kontroverse (13) Loyalität (1) Druck (8) Professionalität (14) Fairness (4) Temperament (13)

Profil

Trainerstil Demokratisch
Lizenz Nationale A
Entschlossenheit 8
Menschenführung 12
Motivation 7
Disziplin 4
Arbeitszufriedenheit
100%
Ermüdung
0%
Rolle Chefscout
Gehalt 53.1K p/W
Vertrag 14.03.2029

Leistung

Verhalten Gut
Trainingseffektivität
35%
Spielerentwicklung
20%
Verletzungsprävention
45%
Taktische Umsetzung
35%

Letzte Ereignisse

Nahm an einer Scouting-Besprechung teil jetzt
Empfahl ein Transferziel jetzt
Nahm an einer Scouting-Besprechung teil 7T her
Empfahl ein Transferziel 7T her
Empfahl ein Transferziel 7T her
Empfahl ein Transferziel 7T her
Geburtstag 7T her
Empfahl ein Transferziel 14T her

Aktuell beobachtet

82
Spieler Verein Status Fähigkeit Vertrauen Beobachtet Zuletzt beobachtet Letzte Stimme
Rafael Perez Siah Jamegan Aktiv 74 / 79 30% 1 / 1m 06.09.2028 -
Reza Shekari Persepolis Aktiv 112 / 118 69% 1 26.06.2028 Befürworten
Kirill Kistenev Botev Vratsa Aktiv 100 / 103 40% 2 28.05.2028 -
Morteza Torabi Malavan Aktiv 108 / 115 40% 6 27.05.2028 -
Artem Nosachev Spartak Moscow Aktiv 92 / 95 40% 2 27.05.2028 -
Simone Suppa Virtus Verona Aktiv 77 / 99 40% 9 25.05.2028 -
Kelian Le Pironnec Mirandés Aktiv 94 / 114 40% 2 25.05.2028 -
Dmytro Strilchuk Podillia Aktiv 79 / 93 40% 4 21.05.2028 -
Federico Matarán Giana Erminio Aktiv 95 / 114 40% 4 21.05.2028 -
Ahmed Zaki Masr El Makasa Aktiv 86 / 81 40% 2 21.05.2028 -
Josh Nichols Oldham Athletic Aktiv 125 / 136 40% 11 20.05.2028 -
Bernardo Lima Porto Aktiv 119 / 120 40% 8 20.05.2028 -
Andrey Ivlev Nizhniy Novgorod Aktiv 118 / 116 40% 10 19.05.2028 -
Andrea Cogoni Cosenza Aktiv 107 / 110 40% 3 19.05.2028 -
Tyler Fletcher Rotherham United Aktiv 110 / 128 40% 3 18.05.2028 -
Abubakar Adams Aduana Stars Aktiv 95 / 78 40% 2 18.05.2028 -
Daniel Banjaqui Benfica Aktiv 130 / 118 40% 4 17.05.2028 -
Jorthy Mokio ADO Den Haag Aktiv 139 / 144 40% 5 17.05.2028 -
Amine Boukamir Charleroi Aktiv 96 / 106 40% 3 15.05.2028 -
Lautaro Dufur Juventud Aktiv 96 / 112 40% 1 15.05.2028 -
Maxim Radchenko Rostov Aktiv 100 / 101 40% 2 14.05.2028 -
Inti Borghetto Patronato Aktiv 102 / 97 40% 1 10.05.2028 -
Olivier Leroux Mouscron Aktiv 95 / 96 40% 6 09.05.2028 -
Thijs Kraaijeveld USM Alger Aktiv 116 / 125 40% 3 06.05.2028 -
Hosea Michael Remo Stars Aktiv 81 / 102 40% 1 06.05.2028 -
Tobiáš Pališčák Zlin Aktiv 111 / 115 40% 2 05.05.2028 -
David Damboama El-Kanemi Warriors Aktiv 97 / 103 40% 2 04.05.2028 -
Jan Bürger Northampton Town Aktiv 132 / 116 40% 6 02.05.2028 -
Khama Mabunda Platinum Stars Aktiv 93 / 96 40% 1 02.05.2028 -
Miguel Figueiredo Benfica Aktiv 118 / 122 40% 1 01.05.2028 -
Kirill Larionov Kuban Holding Aktiv 72 / 68 40% 1 01.05.2028 -
Martim Cunha Porto Aktiv 118 / 123 40% 7 29.04.2028 -
Jenson Jones Walsall Aktiv 91 / 105 40% 1 27.04.2028 -
Kiani Inge Groningen Aktiv 121 / 114 40% 2 24.04.2028 -
Kamaldeen Atiemo Wa All Stars Aktiv 93 / 95 40% 1 24.04.2028 -
Nour Ashraf ENPPI Aktiv 89 / 94 40% 2 22.04.2028 -
Aboubacar Meïté Afrique Foot Elite Aktiv 85 / 106 40% 1 22.04.2028 -
Tobías Ramírez River Plate Aktiv 122 / 129 40% 1 21.04.2028 -
Nicolas Sport Recife Aktiv 112 / 121 40% 2 10.04.2028 -
Makar Vysochenko Spartak Moscow Aktiv 102 / 94 40% 3 10.04.2028 -
Mehdi Noorafkan Padideh Aktiv 87 / 100 40% 3 25.03.2028 -
Cristian Derbyshire Binga Aktiv 67 / 71 40% 2 20.03.2028 -
Claudio Martey Pianese Aktiv 96 / 93 40% 1 18.03.2028 -
Amir Mohammad Razzaghinia Esteghlal Aktiv 107 / 113 40% 3 16.03.2028 -
Matvey Bardachev Zenit Aktiv 112 / 105 40% 2 16.03.2028 -
Giovanni Leoni Lincoln City Aktiv 141 / 131 40% 2 15.03.2028 -
Stanislav Bukatov Salyut Aktiv 86 / 93 40% 1 12.03.2028 -
Kwesi Sorotu Badori Berekum Chelsea Aktiv 89 / 90 40% 3 06.03.2028 -
Olivier Mambwa Young Boys Aktiv 114 / 125 40% 3 05.03.2028 -
Bence Szakos Aris Aktiv 101 / 113 40% 1 05.03.2028 -
Riquelme Thompson-Jones Accrington Stanley Aktiv 98 / 105 40% 1 05.03.2028 -
Milad Nekounam Gostaresh Foulad Aktiv 77 / 79 40% 1 27.02.2028 -
Jon Esenga IF Elfsborg Aktiv 93 / 90 40% 1 25.02.2028 -
Luca Gobbo Bra Aktiv 100 / 95 40% 1 23.02.2028 -
Esquerdinha Notts County Aktiv 119 / 132 40% 1 20.02.2028 -
Tobias Moi Lillestrom Aktiv 93 / 119 40% 1 17.02.2028 -
Diego Vargas Universidad de Concepcion Aktiv 87 / 92 40% 1 10.02.2028 -
Matias Siltanen Malmo FF Aktiv 110 / 130 40% 1 29.01.2028 -
Nazareno Roselli Defensa y Justicia Aktiv 114 / 118 40% 1 24.01.2028 -
Henrique Carmo Sochi Aktiv 138 / 122 40% 1 03.01.2028 -
Nicolás Barros Schelotto Gimnasia La Plata Aktiv 126 / 132 40% 1 03.01.2028 -
Saeid Sadeghi Ittihad Aktiv 109 / 109 67% 1 01.01.2028 Befürworten
Saeid Pouraliganji Rah Ahan Aktiv 109 / 109 66% 1 01.06.2027 Befürworten
Charlie Gray Fleetwood Town Aktiv 106 / 104 40% 1 01.06.2027 -
Vouria Azmoun Gostaresh Foulad Aktiv 104 / 108 40% 2 31.05.2027 -
Alireza Yazdani Padideh Abgelehnt 119 / 130 58% 1 01.01.2027 Ablehnen
Reece Braithwaite Bloemfontein Celtic Aktiv 88 / 96 40% 1 31.12.2026 -
Saman Dejagah Rah Ahan Aktiv 83 / 74 40% 1 31.12.2026 -
Kazunari Kita Real Sociedad Aktiv 92 / 112 40% 1 27.12.2026 -
Rhys Walters Port Vale Aktiv 103 / 102 40% 2 23.12.2026 -
Cheveyo Tsawa Club Brugge Aktiv 102 / 129 40% 1 12.12.2026 -
Simphiwe Selepe Orlando Pirates Aktiv 94 / 107 40% 1 09.12.2026 -
Riley Owen Stevenage Aktiv 101 / 111 40% 1 08.12.2026 -
Tiago Freitas Benfica Aktiv 113 / 129 40% 1 23.11.2026 -
Agustín Medina Lanús Aktiv 112 / 129 40% 1 02.11.2026 -
Isaí Valladares Zamora Aktiv 91 / 94 40% 1 31.08.2026 -
Thiago Currado Platense Aktiv 98 / 101 40% 1 31.08.2026 -
Gady Beyuku Blackburn Rovers Aktiv 113 / 131 40% 1 24.08.2026 -
Alejo Gelsomino Gimnasia La Plata Aktiv 101 / 113 40% 1 19.08.2026 -
Demián Troya Platense Aktiv 102 / 112 40% 1 11.08.2026 -
Lautaro Gaitán Colón Aktiv 93 / 109 40% 1 11.08.2026 -
Leonard Ngenge Leeds United Aktiv 98 / 101 40% 1 10.08.2026 -